Time;durP1;ratioP1;P1;durP2;ratioP2;P2;SDS_P1;SDS_P2;PMS_P1;PMS_P2;Temp;Humidity;BMP_temperature;BMP_pressure;BME280_temperature;BME280_humidity;BME280_pressure;Samples;Min_cycle;Max_cycle;Signal;HPM_P1;HPM_P2
2022/04/19 00:00:52;;;;;;;10.38;6.18;;;6.00;99.90;;;;;;5072269;28;20028;-86
2022/04/19 00:03:19;;;;;;;8.70;5.97;;;6.00;99.90;;;;;;5072328;28;20078;-86
2022/04/19 00:05:46;;;;;;;13.55;6.22;;;6.00;99.90;;;;;;5072184;28;20035;-78
2022/04/19 00:08:14;;;;;;;18.23;6.10;;;6.00;99.90;;;;;;5072282;28;20498;-78
2022/04/19 00:10:41;;;;;;;10.95;5.38;;;6.00;99.90;;;;;;5072371;28;20024;-77
2022/04/19 00:13:08;;;;;;;10.70;5.57;;;6.00;99.90;;;;;;5071783;28;20083;-78
2022/04/19 00:15:34;;;;;;;12.18;6.13;;;6.00;99.90;;;;;;5072292;28;20024;-78
2022/04/19 00:18:02;;;;;;;8.18;5.05;;;5.90;99.90;;;;;;5072081;28;20064;-77
2022/04/19 00:20:28;;;;;;;10.57;5.57;;;5.90;99.90;;;;;;5053955;28;20028;-78
2022/04/19 00:22:54;;;;;;;10.80;5.80;;;5.90;99.90;;;;;;5072266;28;20036;-78
2022/04/19 00:25:20;;;;;;;19.60;8.77;;;5.80;99.90;;;;;;5054390;28;20128;-78
2022/04/19 00:27:46;;;;;;;9.38;6.05;;;5.80;99.90;;;;;;5071714;28;20111;-77
2022/04/19 00:30:13;;;;;;;13.60;5.97;;;5.80;99.90;;;;;;5072452;28;20029;-77
2022/04/19 00:32:39;;;;;;;12.32;6.53;;;5.80;99.90;;;;;;5071848;28;20353;-78
2022/04/19 00:35:07;;;;;;;10.93;6.43;;;5.70;99.90;;;;;;5073992;28;20110;-77
2022/04/19 00:37:33;;;;;;;12.77;5.97;;;5.70;99.90;;;;;;5075749;28;20029;-77
2022/04/19 00:40:00;;;;;;;11.18;5.88;;;5.70;99.90;;;;;;5076257;28;20020;-78
2022/04/19 00:42:30;;;;;;;11.00;5.00;;;5.70;99.90;;;;;;5076047;28;20104;-78
2022/04/19 00:44:57;;;;;;;10.25;4.32;;;5.70;99.90;;;;;;5058158;28;20032;-78
2022/04/19 00:47:24;;;;;;;12.93;5.65;;;5.70;99.90;;;;;;5075370;28;20021;-78
2022/04/19 00:49:50;;;;;;;11.50;5.55;;;5.60;99.90;;;;;;5076156;28;20084;-77
2022/04/19 00:52:16;;;;;;;10.07;5.72;;;5.60;99.90;;;;;;5075235;28;20028;-78
2022/04/19 00:54:42;;;;;;;11.13;4.93;;;5.50;99.90;;;;;;5076193;28;20117;-78
2022/04/19 00:57:07;;;;;;;9.40;5.15;;;5.50;99.90;;;;;;5075703;28;20055;-78
2022/04/19 00:59:33;;;;;;;7.25;5.20;;;5.50;99.90;;;;;;5075767;28;20036;-78
2022/04/19 01:02:00;;;;;;;13.52;7.18;;;5.50;99.90;;;;;;5075482;28;20036;-78
2022/04/19 01:04:25;;;;;;;9.40;5.10;;;5.50;99.90;;;;;;5074707;28;20021;-77
2022/04/19 01:06:52;;;;;;;11.43;5.03;;;5.50;99.90;;;;;;5075441;28;20023;-77
2022/04/19 01:09:17;;;;;;;9.05;5.53;;;5.40;99.90;;;;;;5075050;28;20037;-77
2022/04/19 01:14:28;;;;;;;11.30;5.13;;;5.30;99.90;;;;;;5075322;28;20036;-77
2022/04/19 01:16:55;;;;;;;8.73;4.75;;;5.30;99.90;;;;;;5075577;28;20327;-78
2022/04/19 01:19:21;;;;;;;7.40;4.25;;;5.30;99.90;;;;;;5075280;28;20078;-77
2022/04/19 01:21:54;;;;;;;8.20;4.63;;;5.30;99.90;;;;;;5074582;28;20033;-77
2022/04/19 01:24:20;;;;;;;8.73;4.53;;;5.30;99.90;;;;;;5057192;28;20048;-78
2022/04/19 01:26:46;;;;;;;8.00;4.00;;;5.30;99.90;;;;;;5074964;28;20060;-77
2022/04/19 01:29:13;;;;;;;15.77;5.18;;;5.30;99.90;;;;;;5075449;28;20467;-78
2022/04/19 01:31:40;;;;;;;9.13;4.75;;;5.30;99.90;;;;;;5074793;28;20048;-78
2022/04/19 01:34:07;;;;;;;11.38;5.32;;;5.20;99.90;;;;;;5074855;28;20032;-78
2022/04/19 01:36:37;;;;;;;7.32;4.63;;;5.20;99.90;;;;;;5074607;28;20029;-77
2022/04/19 01:39:07;;;;;;;8.38;4.38;;;5.20;99.90;;;;;;5075097;28;20028;-77
2022/04/19 01:41:34;;;;;;;12.60;6.05;;;5.10;99.90;;;;;;5074995;28;20060;-77
2022/04/19 01:44:00;;;;;;;10.90;4.78;;;5.10;99.90;;;;;;5074971;28;20025;-78
2022/04/19 01:46:28;;;;;;;10.63;5.50;;;5.10;99.90;;;;;;5074101;28;20024;-77
2022/04/19 01:48:57;;;;;;;10.50;5.30;;;5.10;99.90;;;;;;5056467;28;20028;-78
2022/04/19 01:51:24;;;;;;;10.38;5.85;;;5.00;99.90;;;;;;5074160;28;20103;-77
2022/04/19 01:53:50;;;;;;;8.82;5.22;;;5.00;99.90;;;;;;5074759;28;20473;-77
2022/04/19 01:56:15;;;;;;;8.93;5.43;;;4.90;99.90;;;;;;5074701;28;20024;-77
2022/04/19 01:58:41;;;;;;;10.73;6.18;;;4.90;99.90;;;;;;5074358;28;20380;-78
2022/04/19 02:01:07;;;;;;;12.52;6.50;;;4.90;99.90;;;;;;5075028;28;20021;-77
2022/04/19 02:03:34;;;;;;;11.30;6.55;;;4.90;99.90;;;;;;5056461;28;20031;-78
2022/04/19 02:06:00;;;;;;;14.85;6.57;;;4.90;99.90;;;;;;5074135;28;20409;-78
2022/04/19 02:08:27;;;;;;;10.50;6.15;;;4.80;99.90;;;;;;5074361;28;20464;-77
2022/04/19 02:10:52;;;;;;;15.18;6.28;;;4.80;99.90;;;;;;5074522;28;20099;-77
2022/04/19 02:13:20;;;;;;;11.27;5.72;;;4.70;99.90;;;;;;5074133;28;20025;-77
2022/04/19 02:15:46;;;;;;;8.75;5.28;;;4.70;99.90;;;;;;5074913;28;20456;-77
2022/04/19 02:18:12;;;;;;;8.07;5.30;;;4.70;99.90;;;;;;5074292;28;20460;-77
2022/04/19 02:20:38;;;;;;;11.98;5.32;;;4.70;99.90;;;;;;5073933;28;20024;-77
2022/04/19 02:23:03;;;;;;;9.82;5.18;;;4.70;99.90;;;;;;5056115;28;20483;-77
2022/04/19 02:25:30;;;;;;;15.68;5.10;;;4.70;99.90;;;;;;5074329;28;20029;-77
2022/04/19 02:27:56;;;;;;;7.82;5.15;;;4.70;99.90;;;;;;5073825;28;20028;-77
2022/04/19 02:30:21;;;;;;;9.88;4.57;;;4.70;99.90;;;;;;5056023;28;20140;-78
2022/04/19 02:32:48;;;;;;;7.90;4.88;;;4.80;99.90;;;;;;5073960;28;20050;-77
2022/04/19 02:35:17;;;;;;;8.43;4.00;;;4.80;99.90;;;;;;5073673;28;20068;-77
2022/04/19 02:37:51;;;;;;;9.43;4.70;;;4.80;99.90;;;;;;5073471;28;20365;-78
2022/04/19 02:40:18;;;;;;;6.95;4.90;;;4.80;99.90;;;;;;5056009;28;20086;-78
2022/04/19 02:42:44;;;;;;;7.50;3.95;;;4.70;99.90;;;;;;5073802;28;20028;-78
2022/04/19 02:45:10;;;;;;;7.65;4.82;;;4.70;99.90;;;;;;5073776;28;20033;-78
2022/04/19 02:47:35;;;;;;;6.55;4.70;;;4.70;99.90;;;;;;5073374;28;20104;-78
2022/04/19 02:50:01;;;;;;;6.78;4.57;;;4.60;99.90;;;;;;5073726;28;20472;-77
2022/04/19 02:52:27;;;;;;;7.32;4.82;;;4.60;99.90;;;;;;5073480;28;20465;-78
2022/04/19 02:54:53;;;;;;;10.60;5.03;;;4.50;99.90;;;;;;5073887;28;20032;-78
2022/04/19 02:57:18;;;;;;;10.30;5.38;;;4.50;99.90;;;;;;5073410;28;20070;-77
2022/04/19 02:59:45;;;;;;;8.02;5.00;;;4.50;99.90;;;;;;5073756;28;20025;-78
2022/04/19 03:02:11;;;;;;;6.97;4.72;;;4.50;99.90;;;;;;5073370;28;20518;-78
2022/04/19 03:04:37;;;;;;;13.18;5.30;;;4.40;99.90;;;;;;5072210;28;20020;-77
2022/04/19 03:07:05;;;;;;;8.05;4.65;;;4.40;99.90;;;;;;5073014;28;20027;-77
2022/04/19 03:09:31;;;;;;;6.20;4.80;;;4.40;99.90;;;;;;5055147;28;20119;-78
2022/04/19 03:11:56;;;;;;;6.90;4.65;;;4.30;99.90;;;;;;5073181;28;20103;-78
2022/04/19 03:14:22;;;;;;;7.88;4.38;;;4.30;99.90;;;;;;5072870;28;20085;-78
2022/04/19 03:16:48;;;;;;;6.05;4.45;;;4.30;99.90;;;;;;5072623;28;20546;-78
2022/04/19 03:19:14;;;;;;;6.22;4.25;;;4.30;99.90;;;;;;5073188;28;20021;-77
2022/04/19 03:21:41;;;;;;;6.43;4.60;;;4.30;99.90;;;;;;5072652;28;20366;-77
2022/04/19 03:29:35;;;;;;;7.88;4.30;;;4.20;99.90;;;;;;5073368;28;20078;-85
2022/04/19 03:32:00;;;;;;;6.63;4.40;;;4.20;99.90;;;;;;5071617;28;20052;-85
2022/04/19 03:34:26;;;;;;;11.05;5.03;;;4.20;99.90;;;;;;5072929;28;20036;-87
2022/04/19 03:36:52;;;;;;;13.02;4.95;;;4.10;99.90;;;;;;5072862;28;20036;-86
2022/04/19 03:39:18;;;;;;;9.38;4.53;;;4.10;99.90;;;;;;5072757;28;20031;-87
2022/04/19 03:41:48;;;;;;;6.57;4.05;;;4.10;99.90;;;;;;5055060;28;20388;-86
2022/04/19 03:44:13;;;;;;;5.82;4.22;;;4.10;99.90;;;;;;5055731;28;20025;-85
2022/04/19 03:49:27;;;;;;;7.30;4.60;;;4.00;99.90;;;;;;5072782;28;20388;-86
2022/04/19 03:52:17;;;;;;;3.97;3.25;;;4.00;99.90;;;;;;5071606;28;20029;-85
2022/04/19 03:54:43;;;;;;;8.18;4.28;;;4.00;99.90;;;;;;5072520;28;20086;-86
2022/04/19 03:57:09;;;;;;;4.68;3.20;;;4.00;99.90;;;;;;5070834;28;20032;-85
2022/04/19 03:59:38;;;;;;;6.10;4.00;;;4.00;99.90;;;;;;5071996;28;20033;-85
2022/04/19 04:02:04;;;;;;;6.07;3.47;;;4.00;99.90;;;;;;5071945;28;20464;-85
2022/04/19 04:04:34;;;;;;;6.93;3.67;;;4.10;99.90;;;;;;5055927;28;20469;-85
2022/04/19 04:07:07;;;;;;;11.10;4.20;;;4.10;99.90;;;;;;5064645;28;20017;-86
2022/04/19 04:09:33;;;;;;;7.35;3.55;;;4.10;99.90;;;;;;5072134;28;20035;-86
2022/04/19 04:12:03;;;;;;;6.88;3.50;;;4.10;99.90;;;;;;5072427;28;20387;-86
2022/04/19 04:15:11;;;;;;;7.53;3.95;;;4.10;99.90;;;;;;5072602;28;20024;-86
2022/04/19 04:17:36;;;;;;;9.90;4.45;;;4.10;99.90;;;;;;5052474;28;20493;-86
2022/04/19 04:20:02;;;;;;;9.82;3.83;;;4.10;99.90;;;;;;5071056;28;20100;-86
2022/04/19 04:22:35;;;;;;;8.57;3.92;;;4.10;99.90;;;;;;5072558;28;20475;-87
2022/04/19 04:25:02;;;;;;;4.22;3.38;;;4.10;99.90;;;;;;5072520;28;20025;-86
2022/04/19 04:27:27;;;;;;;7.38;3.58;;;4.10;99.90;;;;;;5072540;28;20103;-86
2022/04/19 04:29:56;;;;;;;6.57;3.30;;;4.20;99.90;;;;;;5072279;28;20056;-85
2022/04/19 04:32:22;;;;;;;4.53;3.45;;;4.20;99.90;;;;;;5054230;28;20064;-85
2022/04/19 04:34:47;;;;;;;5.05;3.40;;;4.30;99.90;;;;;;5072168;28;20592;-86
2022/04/19 04:37:32;;;;;;;3.72;3.10;;;4.20;99.90;;;;;;5072349;28;20117;-85
2022/04/19 04:39:57;;;;;;;6.53;3.33;;;4.30;99.90;;;;;;5072285;28;20500;-85
2022/04/19 04:42:22;;;;;;;6.85;3.13;;;4.30;99.90;;;;;;5072142;28;20110;-85
2022/04/19 04:44:48;;;;;;;3.60;3.15;;;4.30;99.90;;;;;;5072283;28;20032;-85
2022/04/19 04:50:17;;;;;;;11.95;4.93;;;4.40;99.90;;;;;;5072102;28;20502;-85
2022/04/19 04:52:46;;;;;;;8.00;4.25;;;4.40;99.90;;;;;;5071766;28;20066;-86
2022/04/19 04:55:12;;;;;;;7.88;4.45;;;4.50;99.90;;;;;;5071515;28;20400;-86
2022/04/19 04:57:38;;;;;;;5.45;3.30;;;4.50;99.90;;;;;;5071231;28;20032;-86
2022/04/19 05:00:04;;;;;;;9.48;4.22;;;4.60;99.90;;;;;;5071578;28;20039;-86
2022/04/19 05:02:30;;;;;;;6.80;4.18;;;4.60;99.90;;;;;;5052664;28;20029;-86
2022/04/19 05:04:55;;;;;;;11.45;4.10;;;4.60;99.90;;;;;;5071119;28;20388;-86
2022/04/19 05:07:21;;;;;;;4.97;3.35;;;4.60;99.90;;;;;;5071132;28;20074;-86
2022/04/19 05:09:47;;;;;;;4.85;3.95;;;4.70;99.90;;;;;;5068630;28;20071;-86
2022/04/19 05:12:13;;;;;;;10.15;3.50;;;4.80;99.90;;;;;;5070068;28;20393;-85
2022/04/19 05:14:38;;;;;;;5.72;3.80;;;4.80;99.90;;;;;;5070824;28;20025;-86
2022/04/19 05:17:04;;;;;;;8.48;3.65;;;5.00;99.90;;;;;;5071871;28;20032;-86
2022/04/19 05:19:36;;;;;;;4.03;3.33;;;5.00;99.90;;;;;;5071415;28;20036;-86
2022/04/19 05:22:01;;;;;;;10.15;4.07;;;5.10;99.90;;;;;;5054855;28;20541;-86
2022/04/19 05:24:28;;;;;;;5.53;3.47;;;5.20;99.90;;;;;;5074781;28;20024;-86
2022/04/19 05:26:54;;;;;;;5.75;3.55;;;5.30;99.90;;;;;;5075164;28;20103;-86
2022/04/19 05:29:19;;;;;;;4.63;2.97;;;5.40;99.90;;;;;;5074816;28;20064;-86
2022/04/19 05:31:45;;;;;;;5.72;3.35;;;5.50;99.90;;;;;;5053379;28;20127;-86
2022/04/19 05:34:11;;;;;;;3.92;3.22;;;5.60;99.90;;;;;;5054960;28;20018;-86
2022/04/19 05:36:37;;;;;;;7.05;3.55;;;5.70;99.90;;;;;;5054609;28;20025;-86
2022/04/19 05:39:02;;;;;;;6.25;3.85;;;5.80;99.90;;;;;;5054832;28;20032;-86
2022/04/19 05:41:28;;;;;;;6.70;3.55;;;5.80;99.90;;;;;;5054899;28;20021;-86
2022/04/19 05:43:53;;;;;;;9.57;3.60;;;5.90;99.90;;;;;;5054678;28;20110;-86
2022/04/19 05:46:20;;;;;;;5.65;3.42;;;5.90;99.90;;;;;;5054600;28;20492;-86
2022/04/19 05:48:46;;;;;;;6.22;3.45;;;5.90;99.90;;;;;;5054687;28;20029;-86
2022/04/19 05:51:12;;;;;;;5.15;3.70;;;5.90;99.90;;;;;;5054439;28;20078;-85
2022/04/19 05:53:41;;;;;;;6.78;3.50;;;5.90;99.90;;;;;;5054475;28;20110;-86
2022/04/19 05:56:06;;;;;;;6.75;4.00;;;6.10;99.90;;;;;;5053344;28;20388;-86
2022/04/19 05:58:32;;;;;;;6.10;3.53;;;6.10;99.90;;;;;;5054557;28;20029;-86
2022/04/19 06:00:58;;;;;;;3.55;2.88;;;6.10;99.90;;;;;;5052937;28;20020;-86
2022/04/19 06:06:07;;;;;;;11.38;3.63;;;6.20;99.90;;;;;;5054471;28;20083;-86
2022/04/19 06:08:33;;;;;;;3.83;3.10;;;6.20;99.90;;;;;;5054353;28;20033;-87
2022/04/19 06:10:59;;;;;;;5.45;2.92;;;6.20;99.90;;;;;;5054296;28;20029;-86
2022/04/19 06:13:25;;;;;;;5.60;3.20;;;6.30;99.90;;;;;;5053044;28;20051;-86
2022/04/19 06:15:50;;;;;;;10.23;4.13;;;6.30;99.90;;;;;;5054073;28;20024;-85
2022/04/19 06:18:16;;;;;;;4.90;3.10;;;6.30;99.90;;;;;;5054106;28;20090;-86
2022/04/19 06:20:41;;;;;;;9.82;3.88;;;6.40;99.90;;;;;;5053795;28;20025;-86
2022/04/19 06:23:08;;;;;;;10.15;3.80;;;6.40;99.90;;;;;;5054099;28;20518;-86
2022/04/19 06:25:34;;;;;;;6.95;3.35;;;6.40;99.90;;;;;;5054199;28;20070;-87
2022/04/19 06:27:59;;;;;;;6.15;3.50;;;6.40;99.90;;;;;;5053949;28;20492;-87
2022/04/19 06:30:25;;;;;;;8.15;3.40;;;6.40;99.90;;;;;;5056874;28;20058;-86
2022/04/19 06:32:52;;;;;;;4.60;2.83;;;6.50;99.90;;;;;;5073369;28;20032;-86
2022/04/19 06:35:17;;;;;;;8.52;3.55;;;6.40;99.90;;;;;;5073401;28;20029;-87
2022/04/19 06:37:43;;;;;;;4.93;3.30;;;6.50;99.90;;;;;;5073739;28;20028;-87
2022/04/19 06:40:10;;;;;;;9.75;4.13;;;6.60;99.90;;;;;;5073847;28;20021;-86
2022/04/19 06:42:35;;;;;;;7.55;4.00;;;6.60;99.90;;;;;;5073659;28;20025;-87
2022/04/19 06:45:02;;;;;;;7.00;3.38;;;6.60;99.90;;;;;;5073679;28;20020;-86
2022/04/19 06:47:28;;;;;;;6.22;3.25;;;6.70;99.90;;;;;;5073590;28;20387;-86
2022/04/19 06:49:57;;;;;;;5.85;2.30;;;6.70;99.90;;;;;;5073187;28;20099;-87
2022/04/19 06:52:23;;;;;;;5.47;3.38;;;6.70;99.90;;;;;;5073462;28;20468;-86
2022/04/19 06:54:49;;;;;;;5.20;3.17;;;6.80;99.90;;;;;;5073359;28;20029;-87
2022/04/19 06:57:14;;;;;;;8.05;3.65;;;6.80;99.90;;;;;;5073474;28;20024;-86
2022/04/19 06:59:40;;;;;;;5.88;3.42;;;6.90;99.90;;;;;;5073181;28;20481;-87
2022/04/19 07:02:06;;;;;;;6.93;3.33;;;6.90;99.90;;;;;;5073309;28;20029;-87
2022/04/19 07:04:31;;;;;;;13.30;5.00;;;7.00;99.90;;;;;;5072892;28;20060;-87
2022/04/19 07:06:57;;;;;;;4.35;3.30;;;7.10;99.90;;;;;;5073096;28;20095;-86
2022/04/19 07:09:22;;;;;;;6.82;2.88;;;7.10;99.90;;;;;;5073247;28;20059;-87
2022/04/19 07:11:48;;;;;;;4.57;2.90;;;7.10;99.90;;;;;;5073098;28;20029;-86
2022/04/19 07:14:13;;;;;;;4.70;3.83;;;7.10;99.90;;;;;;5073065;28;20032;-86
2022/04/19 07:16:39;;;;;;;7.45;3.25;;;7.20;99.90;;;;;;5073014;28;20097;-86
2022/04/19 07:19:05;;;;;;;4.90;3.53;;;7.20;99.90;;;;;;5072538;28;20025;-86
2022/04/19 07:27:00;;;;;;;5.65;3.35;;;7.40;99.90;;;;;;5072751;28;20125;-86
2022/04/19 07:29:26;;;;;;;4.03;3.38;;;7.40;99.90;;;;;;5072824;28;20502;-87
2022/04/19 07:31:51;;;;;;;21.48;3.65;;;7.50;99.90;;;;;;5072477;28;20124;-86
2022/04/19 07:34:17;;;;;;;4.07;2.95;;;7.50;99.90;;;;;;5072343;28;20067;-86
2022/04/19 07:36:43;;;;;;;7.93;4.05;;;7.50;99.90;;;;;;5054749;28;20029;-87
2022/04/19 07:39:10;;;;;;;10.07;3.88;;;7.50;99.90;;;;;;5054718;28;20038;-87
2022/04/19 07:41:39;;;;;;;5.95;3.78;;;7.50;99.90;;;;;;5054758;28;20082;-88
2022/04/19 07:44:06;;;;;;;5.93;3.20;;;7.50;99.90;;;;;;5071871;28;20089;-86
2022/04/19 07:46:32;;;;;;;4.70;3.25;;;7.50;99.90;;;;;;5072639;28;20461;-87
2022/04/19 07:48:58;;;;;;;6.97;3.58;;;7.60;99.90;;;;;;5054211;28;20036;-87
2022/04/19 07:51:25;;;;;;;7.68;3.38;;;7.50;99.90;;;;;;5054598;28;20048;-87
2022/04/19 07:53:51;;;;;;;6.20;3.50;;;7.60;99.90;;;;;;5054463;28;20059;-86
2022/04/19 07:56:17;;;;;;;4.38;3.40;;;7.70;99.90;;;;;;5072409;28;20066;-87
2022/04/19 07:58:45;;;;;;;6.07;3.55;;;7.60;99.90;;;;;;5054721;28;20119;-87
2022/04/19 08:01:11;;;;;;;9.43;3.88;;;7.70;99.90;;;;;;5072180;28;20146;-87
2022/04/19 08:03:37;;;;;;;5.47;3.63;;;7.80;99.90;;;;;;5071934;28;20099;-88
2022/04/19 08:06:02;;;;;;;8.88;4.00;;;7.70;99.90;;;;;;5072043;28;20388;-87
2022/04/19 08:08:28;;;;;;;9.48;2.97;;;7.90;99.90;;;;;;5054241;28;20020;-86
2022/04/19 08:10:53;;;;;;;6.60;3.28;;;7.90;99.90;;;;;;5054374;28;20385;-85
2022/04/19 08:13:19;;;;;;;3.88;3.13;;;7.90;99.90;;;;;;5072240;28;20045;-87
2022/04/19 08:15:46;;;;;;;8.90;4.05;;;8.00;99.90;;;;;;5072198;28;20040;-87
2022/04/19 08:18:14;;;;;;;6.72;3.55;;;8.00;99.90;;;;;;5054193;28;20024;-87
2022/04/19 08:20:41;;;;;;;7.35;3.58;;;8.10;99.90;;;;;;5071864;28;20028;-86
2022/04/19 08:23:09;;;;;;;10.90;4.45;;;8.10;99.90;;;;;;5072067;28;20078;-86
2022/04/19 08:25:39;;;;;;;6.72;2.47;;;8.10;99.90;;;;;;5072269;28;20028;-86
2022/04/19 08:28:06;;;;;;;4.63;3.13;;;8.20;99.90;;;;;;5054166;28;20496;-86
2022/04/19 08:30:32;;;;;;;4.38;3.10;;;8.20;99.90;;;;;;5050707;28;20037;-86
2022/04/19 08:32:58;;;;;;;8.18;3.60;;;8.20;99.90;;;;;;5051911;28;20025;-85
2022/04/19 08:35:24;;;;;;;5.55;3.30;;;8.30;99.90;;;;;;5051840;28;20064;-86
2022/04/19 08:37:50;;;;;;;13.60;3.63;;;8.30;99.90;;;;;;5050640;28;20029;-87
2022/04/19 08:40:17;;;;;;;3.40;2.72;;;8.30;99.90;;;;;;5052085;28;20017;-87
2022/04/19 08:42:43;;;;;;;7.30;3.58;;;8.40;99.90;;;;;;5051979;28;20417;-87
2022/04/19 08:45:13;;;;;;;8.63;3.20;;;8.40;99.90;;;;;;5051959;28;20028;-86
2022/04/19 08:47:43;;;;;;;6.50;3.17;;;8.50;99.90;;;;;;5052152;28;20047;-86
2022/04/19 08:50:12;;;;;;;6.43;3.33;;;8.50;99.90;;;;;;5051519;28;20109;-86
2022/04/19 08:52:38;;;;;;;5.18;2.75;;;8.50;99.90;;;;;;5051691;28;20100;-87
2022/04/19 08:58:14;;;;;;;3.30;2.80;;;8.70;99.90;;;;;;5053300;28;20091;-86
2022/04/19 09:00:41;;;;;;;6.65;2.90;;;8.70;99.90;;;;;;5053329;28;20473;-86
2022/04/19 09:03:06;;;;;;;7.32;3.08;;;8.70;99.90;;;;;;5055712;28;20108;-86
2022/04/19 09:05:52;;;;;;;5.40;3.30;;;8.70;99.90;;;;;;5055523;28;20092;-86
2022/04/19 09:08:18;;;;;;;4.35;3.20;;;8.70;99.90;;;;;;5055472;28;20373;-87
2022/04/19 09:11:16;;;;;;;6.63;3.80;;;8.80;99.90;;;;;;5055310;28;20033;-86
2022/04/19 09:13:41;;;;;;;7.72;3.67;;;8.90;99.90;;;;;;5013401;28;20525;-87
2022/04/19 09:16:08;;;;;;;12.48;2.63;;;8.90;99.90;;;;;;5034983;28;20038;-86
2022/04/19 09:18:35;;;;;;;4.35;2.92;;;9.10;99.90;;;;;;5035006;28;20021;-86
2022/04/19 09:21:03;;;;;;;12.40;2.83;;;9.00;99.90;;;;;;5034847;28;20023;-85
2022/04/19 09:23:31;;;;;;;3.05;2.50;;;9.10;99.90;;;;;;5049918;28;20105;-87
2022/04/19 09:25:59;;;;;;;3.97;2.72;;;9.10;99.90;;;;;;5049902;28;20034;-86
2022/04/19 09:28:26;;;;;;;5.40;3.10;;;9.10;99.90;;;;;;5044456;28;20021;-85
2022/04/19 09:30:58;;;;;;;8.18;2.67;;;9.20;99.90;;;;;;5035751;28;20060;-87
2022/04/19 09:33:29;;;;;;;4.43;2.58;;;9.20;99.90;;;;;;5042688;28;20104;-86
2022/04/19 09:36:02;;;;;;;8.50;3.22;;;9.30;99.90;;;;;;5053537;28;20060;-86
2022/04/19 09:38:46;;;;;;;5.80;2.53;;;9.30;99.90;;;;;;5054091;28;20029;-86
2022/04/19 09:41:28;;;;;;;7.00;2.88;;;9.40;99.90;;;;;;5054125;28;20025;-86
2022/04/19 09:44:13;;;;;;;5.65;2.88;;;9.40;99.90;;;;;;5053719;28;20056;-86
2022/04/19 09:46:39;;;;;;;7.60;2.83;;;9.50;99.90;;;;;;5034929;28;20493;-86
2022/04/19 09:49:06;;;;;;;5.55;2.72;;;9.60;99.90;;;;;;5041412;28;20090;-86
2022/04/19 09:51:33;;;;;;;7.03;3.85;;;9.60;99.90;;;;;;5049368;28;20036;-87
2022/04/19 09:53:59;;;;;;;4.28;2.15;;;9.60;99.90;;;;;;5044904;28;20468;-85
2022/04/19 09:56:42;;;;;;;6.05;2.55;;;9.70;99.90;;;;;;5050703;28;20043;-86
2022/04/19 09:59:11;;;;;;;7.18;2.97;;;9.70;99.90;;;;;;5050252;28;20029;-86
2022/04/19 10:09:38;;;;;;;4.40;3.17;;;10.00;99.90;;;;;;5034878;28;20029;-86
2022/04/19 10:12:06;;;;;;;4.40;2.63;;;10.00;99.90;;;;;;5054242;28;20029;-85
2022/04/19 10:14:32;;;;;;;5.50;2.63;;;10.00;99.90;;;;;;5046219;28;20504;-85
2022/04/19 10:17:16;;;;;;;4.75;2.83;;;10.10;99.90;;;;;;5054598;28;20032;-85
2022/04/19 10:19:41;;;;;;;9.95;3.08;;;10.10;97.70;;;;;;5034388;28;20029;-86
2022/04/19 10:22:09;;;;;;;4.55;2.35;;;10.20;95.90;;;;;;5043081;28;20551;-85
2022/04/19 10:24:46;;;;;;;5.25;2.78;;;10.20;97.70;;;;;;5053673;28;20017;-85
2022/04/19 10:27:11;;;;;;;6.07;2.38;;;10.30;95.30;;;;;;5053455;28;20116;-85
2022/04/19 10:29:37;;;;;;;3.05;2.05;;;10.40;95.20;;;;;;5049835;28;20117;-87
2022/04/19 10:32:07;;;;;;;4.57;2.45;;;10.40;95.50;;;;;;5037891;28;20041;-87
2022/04/19 10:35:05;;;;;;;9.07;3.38;;;10.40;91.20;;;;;;5048770;28;20025;-86
2022/04/19 10:37:31;;;;;;;17.05;2.63;;;10.50;90.60;;;;;;5034283;28;20071;-85
2022/04/19 10:40:06;;;;;;;4.68;2.42;;;10.60;92.30;;;;;;5040466;28;20021;-86
2022/04/19 10:42:37;;;;;;;4.68;2.47;;;10.60;93.50;;;;;;5051525;28;20049;-87
2022/04/19 10:45:11;;;;;;;5.53;2.20;;;10.60;93.20;;;;;;5045480;28;20053;-86
2022/04/19 10:48:01;;;;;;;3.45;2.67;;;10.70;91.00;;;;;;5036900;28;20028;-86
2022/04/19 10:50:33;;;;;;;4.15;2.17;;;10.70;89.10;;;;;;5044691;28;20036;-85
2022/04/19 10:53:10;;;;;;;4.07;2.63;;;10.80;89.70;;;;;;5051562;28;20027;-85
2022/04/19 10:55:40;;;;;;;7.05;2.83;;;10.80;87.70;;;;;;5053858;28;20024;-85
2022/04/19 10:58:09;;;;;;;5.75;2.22;;;10.80;89.50;;;;;;5051278;28;20032;-85
2022/04/19 11:00:51;;;;;;;2.65;2.00;;;10.80;82.80;;;;;;5033644;28;20040;-87
2022/04/19 11:03:45;;;;;;;5.78;2.35;;;10.80;77.30;;;;;;5034234;28;20093;-86
2022/04/19 11:06:33;;;;;;;2.58;2.20;;;10.90;74.60;;;;;;5035438;28;20460;-86
2022/04/19 11:09:16;;;;;;;4.53;2.22;;;11.00;80.00;;;;;;5034608;28;20060;-87
2022/04/19 11:11:53;;;;;;;1.92;1.70;;;11.00;86.90;;;;;;5043262;28;20028;-87
2022/04/19 11:14:26;;;;;;;8.27;2.38;;;11.10;75.30;;;;;;5033372;28;20061;-86
2022/04/19 11:17:24;;;;;;;3.08;2.13;;;11.10;69.70;;;;;;5045669;28;20047;-87
2022/04/19 11:20:14;;;;;;;3.58;1.98;;;11.20;69.60;;;;;;5052763;28;20025;-87
2022/04/19 11:22:54;;;;;;;3.38;2.38;;;11.20;70.10;;;;;;5053371;28;20029;-86
2022/04/19 11:25:43;;;;;;;4.75;1.83;;;11.20;70.50;;;;;;5045760;28;20469;-87
2022/04/19 11:28:10;;;;;;;6.38;2.08;;;11.30;61.90;;;;;;5051994;28;20537;-87
2022/04/19 11:30:37;;;;;;;3.38;1.85;;;11.40;63.50;;;;;;5052842;28;20056;-86
2022/04/19 11:33:04;;;;;;;4.25;2.15;;;11.40;67.90;;;;;;5054405;28;20037;-87
2022/04/19 11:35:32;;;;;;;7.68;1.80;;;11.50;59.10;;;;;;5071856;28;20024;-86
2022/04/19 11:38:03;;;;;;;4.93;1.85;;;11.50;59.80;;;;;;5072808;28;20025;-86
2022/04/19 11:48:48;;;;;;;6.07;1.90;;;11.70;56.30;;;;;;5070855;28;20090;-86
2022/04/19 11:51:20;;;;;;;4.50;1.77;;;11.80;54.90;;;;;;5072542;28;20032;-87
2022/04/19 11:53:46;;;;;;;7.68;2.85;;;11.80;56.00;;;;;;5071715;28;20051;-86
2022/04/19 11:56:12;;;;;;;9.10;1.90;;;11.80;55.00;;;;;;5072610;28;20032;-86
2022/04/19 11:58:43;;;;;;;2.20;1.77;;;11.90;56.40;;;;;;5072529;28;20384;-86
2022/04/19 12:01:10;;;;;;;12.45;1.88;;;11.90;55.80;;;;;;5071759;28;20349;-88
2022/04/19 12:03:39;;;;;;;5.00;1.88;;;11.90;54.70;;;;;;5070916;28;20109;-86
2022/04/19 12:06:18;;;;;;;5.68;2.00;;;11.90;55.10;;;;;;5072507;28;20499;-87
2022/04/19 12:08:46;;;;;;;3.03;1.65;;;11.90;56.00;;;;;;5069777;28;20126;-87
2022/04/19 12:11:17;;;;;;;2.60;1.80;;;12.00;55.10;;;;;;5067917;28;20111;-87
2022/04/19 12:13:44;;;;;;;4.13;2.08;;;12.00;55.50;;;;;;5061882;28;20040;-87
2022/04/19 12:16:35;;;;;;;4.05;1.98;;;12.10;54.80;;;;;;5052142;28;20032;-87
2022/04/19 12:19:09;;;;;;;2.65;1.73;;;12.20;55.20;;;;;;5052890;28;20065;-85
2022/04/19 12:21:43;;;;;;;3.55;2.00;;;12.30;56.80;;;;;;5052282;28;20029;-88
2022/04/19 12:24:20;;;;;;;10.38;2.10;;;12.50;54.50;;;;;;5052110;28;20427;-85
2022/04/19 12:27:08;;;;;;;4.53;2.05;;;12.60;54.00;;;;;;5052321;28;20025;-86
2022/04/19 12:29:35;;;;;;;2.47;1.70;;;12.60;54.00;;;;;;5052911;28;20057;-85
2022/04/19 12:32:02;;;;;;;5.85;1.70;;;12.70;53.00;;;;;;5069909;28;20059;-86
2022/04/19 12:34:38;;;;;;;4.97;2.17;;;12.70;52.90;;;;;;5075469;28;20067;-86
2022/04/19 12:37:12;;;;;;;8.27;2.08;;;12.70;52.60;;;;;;5060730;28;20039;-77
2022/04/19 12:39:39;;;;;;;4.72;2.35;;;12.80;51.30;;;;;;5055727;28;20118;-78
2022/04/19 12:42:07;;;;;;;6.70;2.25;;;12.80;50.10;;;;;;5067936;28;20035;-77
2022/04/19 12:44:35;;;;;;;4.13;2.10;;;12.80;51.10;;;;;;5074087;28;20020;-77
2022/04/19 12:47:04;;;;;;;4.45;1.88;;;12.90;54.10;;;;;;5073809;28;20411;-77
2022/04/19 12:49:31;;;;;;;3.05;1.88;;;13.00;52.20;;;;;;5070155;28;20021;-77
2022/04/19 12:52:02;;;;;;;6.72;2.22;;;13.00;51.40;;;;;;5055833;28;20439;-77
2022/04/19 12:54:29;;;;;;;5.15;1.98;;;13.00;50.70;;;;;;5055680;28;20028;-78
2022/04/19 12:57:02;;;;;;;3.45;1.58;;;13.00;50.60;;;;;;5056068;28;20024;-77
2022/04/19 12:59:33;;;;;;;6.20;1.80;;;13.00;51.80;;;;;;5056832;28;20469;-77
2022/04/19 13:02:00;;;;;;;3.42;1.90;;;12.90;52.10;;;;;;5064970;28;20020;-77
2022/04/19 13:04:26;;;;;;;2.60;1.73;;;13.00;51.10;;;;;;5055452;28;20502;-77
2022/04/19 13:12:24;;;;;;;3.65;1.77;;;13.00;50.10;;;;;;5059690;28;20027;-78
2022/04/19 13:14:52;;;;;;;12.55;2.42;;;13.10;51.20;;;;;;5072719;28;20384;-77
2022/04/19 13:17:18;;;;;;;3.25;2.17;;;13.10;51.10;;;;;;5056476;28;20024;-77
2022/04/19 13:19:45;;;;;;;5.55;2.03;;;13.20;51.70;;;;;;5072631;28;20029;-77
2022/04/19 13:22:12;;;;;;;3.15;1.63;;;13.20;51.40;;;;;;5072678;28;20024;-77
2022/04/19 13:24:39;;;;;;;3.00;2.00;;;13.30;51.80;;;;;;5067513;28;20024;-77
2022/04/19 13:27:06;;;;;;;3.50;2.15;;;13.40;53.00;;;;;;5072302;28;20024;-77
2022/04/19 13:29:35;;;;;;;3.80;2.08;;;13.40;50.20;;;;;;5074121;28;20438;-77
2022/04/19 13:32:02;;;;;;;2.05;1.52;;;13.40;49.50;;;;;;5072422;28;20120;-77
2022/04/19 13:34:28;;;;;;;2.33;1.98;;;13.50;50.20;;;;;;5071821;28;20025;-77
2022/04/19 13:36:56;;;;;;;2.65;1.95;;;13.50;50.50;;;;;;5074191;28;20514;-77
2022/04/19 13:39:22;;;;;;;2.95;2.03;;;13.50;50.60;;;;;;5072774;28;20035;-77
2022/04/19 13:41:48;;;;;;;4.47;2.20;;;13.50;50.80;;;;;;5071317;28;20025;-77
2022/04/19 13:44:13;;;;;;;3.22;2.17;;;13.60;51.10;;;;;;5073528;28;20024;-77
2022/04/19 13:46:42;;;;;;;3.75;1.88;;;13.60;50.90;;;;;;5072897;28;20388;-77